Time;durP1;ratioP1;P1;durP2;ratioP2;P2;SDS_P1;SDS_P2;PMS_P1;PMS_P2;Temp;Humidity;BMP_temperature;BMP_pressure;BME280_temperature;BME280_humidity;BME280_pressure;Samples;Min_cycle;Max_cycle;Signal;HPM_P1;HPM_P2
2021/09/29 00:00:36;;;;;;;6.37;5.77;;;;;;;14.76;80.12;96931.00;5085476;28;20636;-56
2021/09/29 00:03:02;;;;;;;8.83;5.83;;;;;;;14.67;81.25;96935.09;5076803;28;20185;-56
2021/09/29 00:05:27;;;;;;;6.77;5.47;;;;;;;14.72;80.20;96937.00;5087867;28;20177;-57
2021/09/29 00:07:53;;;;;;;8.87;5.93;;;;;;;14.55;81.45;96934.44;5081383;28;20568;-57
2021/09/29 00:10:18;;;;;;;8.57;7.10;;;;;;;14.86;79.35;96932.94;5082527;28;20203;-57
2021/09/29 00:12:43;;;;;;;7.67;6.50;;;;;;;15.03;78.29;96935.44;5077942;28;20246;-57
2021/09/29 00:15:13;;;;;;;7.13;6.33;;;;;;;14.85;78.55;96929.50;5087710;28;20185;-59
2021/09/29 00:17:40;;;;;;;8.13;6.17;;;;;;;14.71;78.88;96917.72;5079599;28;20620;-57
2021/09/29 00:20:07;;;;;;;8.30;6.87;;;;;;;14.68;79.22;96930.63;5079855;28;20565;-58
2021/09/29 00:22:32;;;;;;;7.27;6.33;;;;;;;14.64;79.87;96927.69;5075991;28;20233;-58
2021/09/29 00:24:58;;;;;;;10.33;6.57;;;;;;;14.53;80.82;96929.44;5074267;28;20221;-58
2021/09/29 00:27:23;;;;;;;7.30;6.37;;;;;;;14.57;80.59;96917.34;5081727;28;20563;-57
2021/09/29 00:29:51;;;;;;;7.63;6.67;;;;;;;14.54;81.11;96931.00;5089685;28;20264;-56
2021/09/29 00:32:18;;;;;;;8.10;6.87;;;;;;;14.58;81.66;96931.31;5075659;28;20212;-58
2021/09/29 00:34:44;;;;;;;9.07;6.67;;;;;;;14.41;83.61;96928.78;5087210;28;20212;-59
2021/09/29 00:37:09;;;;;;;9.73;6.73;;;;;;;14.58;82.64;96923.41;5081765;28;20205;-59
2021/09/29 00:39:36;;;;;;;9.70;6.23;;;;;;;14.48;83.75;96929.38;5084201;28;20551;-60
2021/09/29 00:42:02;;;;;;;6.87;6.17;;;;;;;14.58;82.84;96923.41;5087086;28;20693;-59
2021/09/29 00:44:28;;;;;;;9.10;6.13;;;;;;;14.38;84.14;96923.97;5081135;28;20282;-60
2021/09/29 00:46:53;;;;;;;8.57;6.73;;;;;;;14.43;84.38;96931.16;5085797;28;20185;-59
2021/09/29 00:49:19;;;;;;;6.57;5.97;;;;;;;14.35;85.11;96931.56;5082263;28;20188;-59
2021/09/29 00:51:44;;;;;;;6.27;5.60;;;;;;;14.26;85.29;96933.84;5086775;28;20205;-59
2021/09/29 00:54:10;;;;;;;11.70;5.90;;;;;;;14.33;85.23;96931.00;5076910;28;20205;-59
2021/09/29 00:56:36;;;;;;;9.37;6.40;;;;;;;14.22;85.42;96926.66;5084641;28;20322;-59
2021/09/29 00:59:02;;;;;;;6.00;5.23;;;;;;;14.20;85.59;96926.91;5074709;28;20211;-59
2021/09/29 01:01:27;;;;;;;6.10;5.60;;;;;;;14.11;86.40;96918.63;5088559;28;20200;-60
2021/09/29 01:03:54;;;;;;;7.33;6.23;;;;;;;14.14;86.38;96915.53;5079013;28;20173;-60
2021/09/29 01:06:34;;;;;;;7.00;6.20;;;;;;;14.18;86.45;96915.00;5082747;28;20532;-59
2021/09/29 01:09:04;;;;;;;8.70;6.40;;;;;;;14.07;86.74;96914.91;5092589;28;20191;-59
2021/09/29 01:11:51;;;;;;;7.73;6.97;;;;;;;14.03;87.42;96915.63;5093181;28;20197;-60
2021/09/29 01:14:31;;;;;;;7.73;6.67;;;;;;;13.96;88.17;96915.00;5094141;28;20180;-59
2021/09/29 01:17:00;;;;;;;7.50;6.37;;;;;;;13.94;88.45;96917.88;5092817;28;20645;-60
2021/09/29 01:19:35;;;;;;;7.07;6.43;;;;;;;13.91;87.75;96918.38;5077025;28;20193;-60
2021/09/29 01:22:39;;;;;;;7.33;6.53;;;;;;;13.92;87.59;96927.09;5088312;28;20178;-60
2021/09/29 01:25:07;;;;;;;8.00;6.43;;;;;;;13.99;87.24;96925.84;5061934;28;20291;-60
2021/09/29 01:27:35;;;;;;;8.90;6.30;;;;;;;13.91;87.46;96921.03;5076798;28;20188;-60
2021/09/29 01:30:01;;;;;;;9.83;6.70;;;;;;;13.95;87.00;96916.06;5077550;28;20262;-60
2021/09/29 01:32:27;;;;;;;7.57;6.70;;;;;;;13.81;87.62;96910.34;5090636;28;20201;-60
2021/09/29 01:34:53;;;;;;;8.67;6.70;;;;;;;13.76;88.06;96907.66;5077741;28;20266;-60
2021/09/29 01:37:19;;;;;;;7.73;6.47;;;;;;;13.90;87.32;96916.78;5085457;28;20208;-60
2021/09/29 01:39:46;;;;;;;7.57;6.77;;;;;;;13.77;87.82;96911.84;5081216;28;20192;-59
2021/09/29 01:42:12;;;;;;;9.00;6.37;;;;;;;13.82;87.44;96909.28;5091689;28;20180;-60
2021/09/29 01:44:37;;;;;;;8.40;6.83;;;;;;;13.71;87.96;96902.28;5076669;28;20185;-59
2021/09/29 01:47:03;;;;;;;10.70;6.60;;;;;;;13.77;87.95;96898.69;5083033;28;20249;-59
2021/09/29 01:49:45;;;;;;;7.63;6.87;;;;;;;13.84;87.52;96907.22;5083423;28;20674;-59
2021/09/29 01:52:12;;;;;;;7.97;6.67;;;;;;;13.91;87.40;96910.47;5090854;28;20192;-60
2021/09/29 01:54:46;;;;;;;8.00;6.47;;;;;;;13.96;87.30;96900.00;5083307;28;20177;-60
2021/09/29 01:57:11;;;;;;;8.43;5.87;;;;;;;13.89;87.67;96899.38;5075693;28;20474;-59
2021/09/29 01:59:38;;;;;;;12.67;7.43;;;;;;;13.87;88.14;96900.69;5087860;28;20242;-59
2021/09/29 02:02:04;;;;;;;7.40;6.63;;;;;;;13.86;87.88;96894.59;5077445;28;20555;-59
2021/09/29 02:04:30;;;;;;;8.73;6.60;;;;;;;13.95;86.67;96893.13;5091042;28;20220;-60
2021/09/29 02:06:57;;;;;;;7.53;6.73;;;;;;;13.95;85.87;96901.03;5081518;28;20176;-60
2021/09/29 02:09:25;;;;;;;7.77;6.53;;;;;;;13.83;86.31;96891.66;5082817;28;20188;-59
2021/09/29 02:11:51;;;;;;;8.50;6.63;;;;;;;13.74;87.00;96896.56;5089144;28;20201;-59
2021/09/29 02:14:18;;;;;;;8.03;6.20;;;;;;;13.79;86.54;96893.97;5077451;28;20661;-59
2021/09/29 02:16:45;;;;;;;7.10;6.40;;;;;;;13.76;86.54;96894.47;5093631;28;20192;-60
2021/09/29 02:19:11;;;;;;;6.70;5.90;;;;;;;13.85;85.90;96900.13;5093684;28;20534;-60
2021/09/29 02:21:40;;;;;;;10.60;7.00;;;;;;;13.85;86.05;96914.09;5084090;28;20185;-59
2021/09/29 02:24:06;;;;;;;7.57;6.77;;;;;;;13.73;86.53;96918.66;5082147;28;20221;-60
2021/09/29 02:26:32;;;;;;;6.87;6.17;;;;;;;13.73;86.73;96916.03;5084012;28;20649;-59
2021/09/29 02:28:57;;;;;;;6.40;5.73;;;;;;;13.72;86.78;96919.69;5091055;28;20224;-59
2021/09/29 02:31:23;;;;;;;7.87;6.27;;;;;;;13.61;87.14;96923.22;5088446;28;20205;-60
2021/09/29 02:33:48;;;;;;;7.13;5.80;;;;;;;13.65;87.36;96917.22;5089507;28;20229;-60
2021/09/29 02:36:14;;;;;;;9.07;6.03;;;;;;;13.82;85.87;96926.97;5083649;28;20216;-60
2021/09/29 02:38:41;;;;;;;9.93;6.80;;;;;;;13.85;85.16;96927.25;5074744;28;20177;-60
2021/09/29 02:41:07;;;;;;;9.23;6.20;;;;;;;13.88;84.82;96926.75;5083421;28;20527;-60
2021/09/29 02:43:32;;;;;;;9.07;5.93;;;;;;;13.82;84.87;96919.06;5080866;28;20177;-60
2021/09/29 02:45:59;;;;;;;6.77;6.00;;;;;;;13.83;85.04;96931.97;5080718;28;20196;-60
2021/09/29 02:48:24;;;;;;;6.90;6.20;;;;;;;13.59;86.49;96935.84;5081219;28;20189;-60
2021/09/29 02:50:49;;;;;;;8.27;6.03;;;;;;;13.62;87.04;96940.63;5081755;28;20181;-60
2021/09/29 02:53:15;;;;;;;8.17;6.27;;;;;;;13.87;85.88;96937.56;5083096;28;20622;-59
2021/09/29 02:55:40;;;;;;;9.07;6.40;;;;;;;13.88;85.62;96942.56;5079455;28;20184;-60
2021/09/29 02:58:06;;;;;;;6.23;5.63;;;;;;;13.89;85.31;96938.91;5085757;28;20258;-59
2021/09/29 03:00:32;;;;;;;7.23;6.53;;;;;;;13.95;84.62;96932.66;5082712;28;20181;-60
2021/09/29 03:02:57;;;;;;;6.47;5.67;;;;;;;13.85;85.12;96939.63;5082236;28;20536;-60
2021/09/29 03:05:23;;;;;;;8.20;5.80;;;;;;;14.02;82.82;96943.03;5083438;28;20664;-60
2021/09/29 03:07:48;;;;;;;6.80;5.50;;;;;;;14.01;82.26;96936.97;5086438;28;20271;-60
2021/09/29 03:10:13;;;;;;;9.53;5.90;;;;;;;13.89;82.00;96943.38;5086891;28;20623;-59
2021/09/29 03:12:39;;;;;;;6.37;5.37;;;;;;;13.81;82.16;96947.25;5085846;28;20197;-60
2021/09/29 03:15:04;;;;;;;8.00;6.40;;;;;;;13.90;81.97;96951.03;5085230;28;20258;-60
2021/09/29 03:17:30;;;;;;;8.57;6.03;;;;;;;13.83;82.22;96955.69;5083875;28;20541;-60
2021/09/29 03:19:55;;;;;;;5.43;4.93;;;;;;;13.57;83.84;96951.09;5078788;28;20185;-60
2021/09/29 03:22:21;;;;;;;6.10;5.43;;;;;;;13.61;83.94;96958.28;5082973;28;20272;-59
2021/09/29 03:24:46;;;;;;;7.33;5.93;;;;;;;13.53;84.71;96966.59;5087448;28;20249;-59
2021/09/29 03:27:12;;;;;;;7.60;5.67;;;;;;;13.66;84.25;96962.81;5081030;28;20189;-60
2021/09/29 03:29:37;;;;;;;6.87;5.90;;;;;;;13.72;84.30;96960.00;5086025;28;20200;-60
2021/09/29 03:32:03;;;;;;;8.63;5.90;;;;;;;13.81;83.64;96964.88;5083616;28;20559;-60
2021/09/29 03:34:28;;;;;;;9.00;5.97;;;;;;;13.67;84.31;96964.41;5089245;28;20632;-60
2021/09/29 03:36:54;;;;;;;6.10;5.50;;;;;;;13.65;84.42;96959.38;5078178;28;20414;-60
2021/09/29 03:39:19;;;;;;;6.20;5.60;;;;;;;13.50;85.55;96964.41;5089558;28;20230;-60
2021/09/29 03:41:45;;;;;;;6.13;5.40;;;;;;;13.54;85.28;96968.16;5078620;28;20187;-60
2021/09/29 03:44:10;;;;;;;8.67;5.93;;;;;;;13.45;86.03;96963.53;5084518;28;20181;-60
2021/09/29 03:46:35;;;;;;;6.67;6.07;;;;;;;13.42;86.30;96979.84;5083072;28;20181;-60
2021/09/29 03:49:03;;;;;;;7.03;6.30;;;;;;;13.42;86.12;96964.03;5083960;28;20532;-60
2021/09/29 03:51:29;;;;;;;6.23;5.60;;;;;;;13.14;87.42;96978.06;5087457;28;20228;-60
2021/09/29 03:53:54;;;;;;;7.60;6.03;;;;;;;13.23;86.97;96976.63;5077733;28;20676;-60
2021/09/29 03:56:19;;;;;;;7.43;5.90;;;;;;;13.08;87.87;96978.97;5084077;28;20227;-60
2021/09/29 03:58:45;;;;;;;10.73;6.07;;;;;;;13.12;87.74;96988.81;5074937;28;20185;-60
2021/09/29 04:01:10;;;;;;;7.07;6.40;;;;;;;13.12;87.87;96974.88;5079845;28;20291;-60
2021/09/29 04:03:36;;;;;;;7.60;6.43;;;;;;;13.13;87.78;96974.63;5090135;28;20188;-60
2021/09/29 04:06:01;;;;;;;8.17;6.10;;;;;;;12.98;88.48;96976.97;5084246;28;20180;-60
2021/09/29 04:08:27;;;;;;;6.97;6.27;;;;;;;12.90;88.97;96983.41;5074137;28;20181;-60
2021/09/29 04:10:55;;;;;;;7.40;6.30;;;;;;;13.09;88.02;96988.47;5077819;28;20301;-60
2021/09/29 04:13:20;;;;;;;7.27;6.50;;;;;;;12.95;88.87;96989.78;5080980;28;20200;-59
2021/09/29 04:15:46;;;;;;;8.70;6.27;;;;;;;12.93;89.32;96984.00;5085396;28;20180;-60
2021/09/29 04:18:11;;;;;;;8.90;6.70;;;;;;;13.01;89.01;96986.22;5083502;28;20233;-60
2021/09/29 04:20:36;;;;;;;12.17;6.53;;;;;;;13.11;88.45;96986.38;5081271;28;20664;-60
2021/09/29 04:23:02;;;;;;;7.60;6.17;;;;;;;12.89;89.86;96992.34;5079619;28;20189;-59
2021/09/29 04:25:27;;;;;;;7.93;6.47;;;;;;;13.02;89.28;96987.81;5081341;28;20189;-60
2021/09/29 04:27:53;;;;;;;8.07;6.00;;;;;;;12.98;89.47;96997.22;5085185;28;20551;-60
2021/09/29 04:30:19;;;;;;;9.83;5.97;;;;;;;13.12;88.02;96991.44;5086970;28;20687;-60
2021/09/29 04:32:45;;;;;;;6.00;5.43;;;;;;;12.99;88.94;96994.34;5086623;28;20208;-60
2021/09/29 04:35:11;;;;;;;6.07;5.47;;;;;;;13.22;87.57;96993.44;5085745;28;20486;-60
2021/09/29 04:37:37;;;;;;;8.33;5.93;;;;;;;13.24;87.44;96992.19;5073195;28;20192;-60
2021/09/29 04:40:05;;;;;;;5.63;5.13;;;;;;;13.11;87.86;96989.03;5073637;28;20174;-60
2021/09/29 04:42:30;;;;;;;8.63;5.07;;;;;;;13.25;87.17;96993.00;5077293;28;20204;-60
2021/09/29 04:44:56;;;;;;;5.93;5.33;;;;;;;13.21;87.21;96997.91;5077388;28;20538;-60
2021/09/29 04:47:22;;;;;;;5.70;5.07;;;;;;;13.18;87.80;96995.78;5091593;28;20185;-59
2021/09/29 04:49:47;;;;;;;7.90;5.27;;;;;;;13.09;87.64;97002.44;5082441;28;20763;-60
2021/09/29 04:52:12;;;;;;;5.63;4.93;;;;;;;13.15;87.43;96995.47;5080074;28;20218;-60
2021/09/29 04:54:41;;;;;;;5.83;4.60;;;;;;;13.00;88.21;96995.13;5078286;28;20198;-59
2021/09/29 04:57:06;;;;;;;5.30;4.50;;;;;;;13.14;87.16;96999.91;5077953;28;20193;-60
2021/09/29 04:59:32;;;;;;;5.07;4.57;;;;;;;13.06;87.62;96995.00;5080424;28;20172;-60
2021/09/29 05:01:57;;;;;;;6.43;4.43;;;;;;;13.18;87.04;97000.22;5084873;28;20641;-60
2021/09/29 05:04:24;;;;;;;5.70;4.70;;;;;;;13.07;87.86;96998.44;5084632;28;20173;-59
2021/09/29 05:06:51;;;;;;;6.37;4.57;;;;;;;13.08;87.45;97002.66;5080024;28;20272;-59
2021/09/29 05:09:16;;;;;;;7.13;4.60;;;;;;;13.08;87.35;97002.66;5090227;28;20636;-59
2021/09/29 05:11:52;;;;;;;4.80;4.40;;;;;;;13.09;87.42;97006.91;5081417;28;20297;-59
2021/09/29 05:14:17;;;;;;;11.60;4.77;;;;;;;13.07;87.17;97011.59;5085648;28;20185;-59
2021/09/29 05:16:43;;;;;;;5.10;4.33;;;;;;;13.05;87.67;97003.91;5094208;28;20181;-60
2021/09/29 05:19:08;;;;;;;4.67;4.27;;;;;;;12.99;87.89;97020.66;5079856;28;20180;-60
2021/09/29 05:21:34;;;;;;;4.57;4.17;;;;;;;12.97;88.18;97020.09;5091035;28;20465;-59
2021/09/29 05:23:59;;;;;;;10.67;4.90;;;;;;;12.94;88.15;97020.56;5082715;28;20270;-59
2021/09/29 05:26:24;;;;;;;7.53;4.60;;;;;;;12.91;88.19;97023.69;5086306;28;20254;-59
2021/09/29 05:28:51;;;;;;;5.03;4.53;;;;;;;12.81;88.92;97019.03;5081389;28;20302;-59
2021/09/29 05:31:18;;;;;;;5.50;5.00;;;;;;;12.86;88.77;97027.00;5085538;28;20204;-59
2021/09/29 05:33:43;;;;;;;5.33;4.83;;;;;;;12.78;89.31;97022.13;5077742;28;20186;-60
2021/09/29 05:36:09;;;;;;;5.70;4.40;;;;;;;12.89;88.63;97023.91;5089568;28;20591;-59
2021/09/29 05:38:34;;;;;;;5.03;4.63;;;;;;;12.83;88.84;97018.78;5079113;28;20188;-59
2021/09/29 05:41:00;;;;;;;6.40;5.03;;;;;;;12.65;89.85;97021.59;5081186;28;20176;-59
2021/09/29 05:43:25;;;;;;;7.57;4.63;;;;;;;12.66;90.06;97013.47;5084545;28;20185;-59
2021/09/29 05:45:52;;;;;;;5.17;4.77;;;;;;;12.74;89.77;97020.19;5089523;28;20684;-60
2021/09/29 05:48:18;;;;;;;5.57;5.07;;;;;;;12.98;88.91;97031.44;5077925;28;20665;-59
2021/09/29 05:50:43;;;;;;;8.07;5.13;;;;;;;13.01;88.74;97034.38;5091833;28;20207;-59
2021/09/29 05:53:09;;;;;;;6.20;5.60;;;;;;;13.05;88.17;97038.13;5088710;28;20208;-60
2021/09/29 05:55:34;;;;;;;5.80;5.20;;;;;;;13.13;87.91;97037.00;5091334;28;20236;-59
2021/09/29 05:58:01;;;;;;;6.40;5.03;;;;;;;13.08;87.75;97045.56;5085630;28;20637;-59
2021/09/29 06:00:26;;;;;;;6.00;4.83;;;;;;;13.10;87.88;97050.56;5086623;28;20189;-60
2021/09/29 06:02:52;;;;;;;5.67;4.33;;;;;;;13.21;86.94;97049.75;5086976;28;20187;-60
2021/09/29 06:05:18;;;;;;;5.40;4.30;;;;;;;13.45;84.93;97047.81;5085233;28;20191;-60
2021/09/29 06:07:43;;;;;;;6.90;4.30;;;;;;;13.33;84.40;97048.66;5086225;28;20541;-60
2021/09/29 06:10:09;;;;;;;6.37;4.20;;;;;;;13.55;83.93;97056.66;5091194;28;20226;-61
2021/09/29 06:12:36;;;;;;;5.73;3.57;;;;;;;13.63;83.75;97051.03;5084706;28;20197;-62
2021/09/29 06:15:01;;;;;;;3.93;3.60;;;;;;;13.95;82.09;97048.63;5089494;28;20199;-61
2021/09/29 06:17:36;;;;;;;5.90;3.77;;;;;;;14.18;80.82;97052.91;5087699;28;20264;-60
2021/09/29 06:20:03;;;;;;;4.00;3.60;;;;;;;14.50;79.80;97061.00;5087439;28;20182;-61
2021/09/29 06:22:29;;;;;;;4.30;3.57;;;;;;;14.72;78.75;97056.53;5079067;28;20220;-60
2021/09/29 06:24:54;;;;;;;6.43;3.03;;;;;;;15.07;77.10;97060.63;5088671;28;20307;-61
2021/09/29 06:27:19;;;;;;;7.77;3.80;;;;;;;15.21;76.42;97059.97;5085358;28;20205;-61
2021/09/29 06:29:45;;;;;;;6.37;3.30;;;;;;;15.42;75.34;97066.28;5083238;28;20305;-59
2021/09/29 06:32:10;;;;;;;4.17;3.30;;;;;;;15.67;74.50;97063.06;5087712;28;20231;-61
2021/09/29 06:34:36;;;;;;;3.50;3.07;;;;;;;15.66;76.76;97058.84;5076138;28;20181;-61
2021/09/29 06:37:02;;;;;;;4.03;3.40;;;;;;;15.60;76.56;97049.28;5085588;28;20226;-60
2021/09/29 06:39:27;;;;;;;3.87;3.43;;;;;;;15.69;75.86;97066.28;5083858;28;20189;-60
2021/09/29 06:41:53;;;;;;;3.47;3.17;;;;;;;15.60;76.14;97070.44;5090725;28;20747;-60
2021/09/29 06:44:18;;;;;;;4.10;3.00;;;;;;;15.53;76.81;97067.19;5078778;28;20263;-61
2021/09/29 06:46:44;;;;;;;3.93;3.37;;;;;;;15.68;75.26;97068.09;5080747;28;20236;-60
2021/09/29 06:49:09;;;;;;;5.57;3.07;;;;;;;15.54;75.80;97069.59;5081102;28;20181;-61
2021/09/29 06:51:35;;;;;;;3.47;3.10;;;;;;;15.51;76.23;97069.25;5082527;28;20200;-60
2021/09/29 06:54:00;;;;;;;4.60;2.60;;;;;;;16.01;74.73;97069.69;5093033;28;20539;-60
2021/09/29 06:56:26;;;;;;;3.50;2.67;;;;;;;16.10;73.85;97070.81;5079073;28;20656;-60
2021/09/29 06:58:52;;;;;;;3.33;2.70;;;;;;;16.41;72.34;97066.50;5075214;28;20189;-60
2021/09/29 07:01:19;;;;;;;4.83;2.77;;;;;;;16.34;71.31;97065.13;5076129;28;20665;-61
2021/09/29 07:03:44;;;;;;;3.93;2.57;;;;;;;16.30;71.15;97072.00;5081305;28;20196;-60
2021/09/29 07:06:10;;;;;;;3.40;2.70;;;;;;;16.26;71.60;97068.28;5092857;28;20176;-61
2021/09/29 07:08:36;;;;;;;5.80;2.87;;;;;;;16.33;71.40;97068.84;5082021;28;20653;-62
2021/09/29 07:11:02;;;;;;;5.07;2.20;;;;;;;16.67;70.28;97072.75;5088522;28;20184;-60
2021/09/29 07:13:28;;;;;;;3.27;2.43;;;;;;;16.67;69.84;97069.28;5081855;28;20200;-61
2021/09/29 07:15:54;;;;;;;3.53;2.30;;;;;;;16.71;69.12;97067.75;5089053;28;20180;-62
2021/09/29 07:18:19;;;;;;;2.63;2.23;;;;;;;16.84;68.86;97075.19;5083443;28;20657;-61
2021/09/29 07:20:45;;;;;;;6.67;2.20;;;;;;;16.89;69.03;97070.72;5090187;28;20176;-60
2021/09/29 07:23:10;;;;;;;2.60;2.07;;;;;;;16.96;68.69;97075.78;5083041;28;20667;-60
2021/09/29 07:25:38;;;;;;;2.63;2.10;;;;;;;17.27;67.35;97074.03;5090464;28;20643;-61
2021/09/29 07:28:04;;;;;;;4.00;2.67;;;;;;;17.21;67.17;97078.50;5078847;28;20178;-61
2021/09/29 07:30:31;;;;;;;3.63;1.97;;;;;;;17.10;67.12;97084.03;5082360;28;20188;-60
2021/09/29 07:33:02;;;;;;;2.50;2.00;;;;;;;16.97;67.19;97078.16;5082796;28;20235;-59
2021/09/29 07:35:27;;;;;;;2.90;2.30;;;;;;;16.99;68.07;97075.28;5085381;28;20184;-62
2021/09/29 07:37:53;;;;;;;3.80;2.30;;;;;;;17.11;67.16;97078.47;5085193;28;20172;-62
2021/09/29 07:40:18;;;;;;;2.47;2.10;;;;;;;17.07;67.32;97080.06;5076112;28;20232;-61
2021/09/29 07:42:44;;;;;;;2.77;1.77;;;;;;;17.07;67.05;97081.91;5088053;28;20212;-62
2021/09/29 07:45:10;;;;;;;2.37;1.90;;;;;;;17.01;66.39;97089.03;5079892;28;20184;-62
2021/09/29 07:47:36;;;;;;;1.80;1.70;;;;;;;16.81;66.39;97083.66;5080433;28;20253;-62
2021/09/29 07:50:01;;;;;;;6.77;1.80;;;;;;;17.03;66.07;97089.56;5083619;28;20231;-60
2021/09/29 07:52:27;;;;;;;3.53;1.67;;;;;;;16.95;66.29;97090.06;5075743;28;20197;-60
2021/09/29 07:54:53;;;;;;;4.00;1.97;;;;;;;17.18;66.31;97083.53;5078544;28;20185;-59
2021/09/29 07:57:19;;;;;;;3.93;1.87;;;;;;;17.34;65.64;97085.94;5081242;28;20187;-61
2021/09/29 07:59:45;;;;;;;3.40;1.57;;;;;;;17.21;65.12;97086.47;5087061;28;20272;-60
2021/09/29 08:02:11;;;;;;;2.13;1.33;;;;;;;17.11;64.57;97085.63;5081727;28;20193;-60
2021/09/29 08:04:36;;;;;;;1.70;1.60;;;;;;;17.17;64.85;97090.66;5080881;28;20680;-60
2021/09/29 08:07:02;;;;;;;2.80;1.40;;;;;;;17.22;64.88;97087.25;5081229;28;20188;-60
2021/09/29 08:09:28;;;;;;;1.73;1.40;;;;;;;17.36;64.42;97091.00;5081344;28;20177;-61
2021/09/29 08:11:54;;;;;;;2.17;1.20;;;;;;;17.48;63.77;97093.41;5078258;28;20243;-62
2021/09/29 08:14:19;;;;;;;1.50;1.17;;;;;;;17.56;63.43;97080.41;5084980;28;20274;-59
2021/09/29 08:16:46;;;;;;;1.40;1.30;;;;;;;17.42;62.75;97082.78;5080242;28;20184;-60
2021/09/29 08:19:11;;;;;;;1.53;1.27;;;;;;;17.43;62.58;97084.41;5083855;28;20177;-59
2021/09/29 08:21:37;;;;;;;2.23;1.40;;;;;;;17.58;61.32;97082.81;5080827;28;20531;-60
2021/09/29 08:26:55;;;;;;;0.90;0.90;;;;;;;17.48;61.21;97085.44;5083448;28;20262;-59
2021/09/29 08:32:18;;;;;;;1.60;1.10;;;;;;;17.47;61.89;97079.34;5084475;28;20279;-60
2021/09/29 08:34:59;;;;;;;1.73;1.00;;;;;;;17.60;61.33;97083.38;5087182;28;20172;-60
2021/09/29 08:37:33;;;;;;;1.00;1.00;;;;;;;17.51;60.89;97084.91;5074054;28;20189;-60
2021/09/29 08:40:08;;;;;;;1.10;1.00;;;;;;;17.61;60.69;97083.09;5076816;28;20172;-60
2021/09/29 08:45:13;;;;;;;1.10;1.00;;;;;;;17.56;60.35;97084.91;5087493;28;20645;-60
2021/09/29 08:50:22;;;;;;;1.53;0.90;;;;;;;17.62;60.22;97102.44;5085191;28;20172;-61
2021/09/29 08:53:15;;;;;;;1.90;1.00;;;;;;;17.34;60.42;97098.41;5082549;28;20592;-60
2021/09/29 08:56:06;;;;;;;1.13;1.10;;;;;;;17.25;60.76;97099.97;5078995;28;20220;-60
2021/09/29 09:17:34;;;;;;;2.50;1.00;;;;;;;17.87;59.13;97083.94;5075684;28;20192;-60
2021/09/29 09:20:19;;;;;;;4.00;1.10;;;;;;;18.24;57.64;97088.94;5084429;28;20181;-60
2021/09/29 09:22:49;;;;;;;1.00;1.00;;;;;;;18.44;56.67;97074.84;5077381;28;20209;-60
2021/09/29 09:25:15;;;;;;;1.20;1.20;;;;;;;18.40;57.37;97079.88;5074297;28;20218;-60
2021/09/29 09:27:45;;;;;;;1.30;0.98;;;;;;;18.67;56.52;97071.59;5085189;28;20261;-60
2021/09/29 09:30:11;;;;;;;2.15;1.02;;;;;;;18.76;55.58;97067.34;5083571;28;20195;-60
2021/09/29 09:32:43;;;;;;;2.22;1.05;;;;;;;18.82;54.49;97068.91;5089550;28;20200;-60
2021/09/29 09:35:11;;;;;;;0.80;0.70;;;;;;;18.84;54.81;97068.63;5086532;28;20184;-60
2021/09/29 09:37:39;;;;;;;0.73;0.70;;;;;;;19.17;53.81;97067.94;5082878;28;20181;-60
2021/09/29 09:40:07;;;;;;;2.28;0.80;;;;;;;19.16;53.47;97063.69;5081252;28;20180;-60
2021/09/29 09:42:44;;;;;;;1.25;0.70;;;;;;;19.34;53.14;97067.56;5083021;28;20180;-60
2021/09/29 09:45:11;;;;;;;0.70;0.70;;;;;;;19.34;53.31;97056.94;5085430;28;20311;-60
2021/09/29 09:47:40;;;;;;;1.95;0.70;;;;;;;19.37;52.59;97064.38;5084225;28;20184;-60
2021/09/29 09:50:06;;;;;;;1.80;0.80;;;;;;;19.48;52.07;97065.94;5084417;28;20185;-60
2021/09/29 09:52:44;;;;;;;0.80;0.80;;;;;;;19.72;51.20;97052.72;5085510;28;20216;-60
2021/09/29 09:55:15;;;;;;;1.00;0.90;;;;;;;19.75;51.47;97058.28;5090307;28;20676;-60
2021/09/29 09:57:42;;;;;;;1.95;1.10;;;;;;;19.55;52.17;97061.09;5083059;28;20188;-60
2021/09/29 10:00:12;;;;;;;1.02;0.77;;;;;;;19.18;52.60;97050.91;5093795;28;20263;-60
2021/09/29 10:02:48;;;;;;;1.00;0.70;;;;;;;19.34;52.05;97048.97;5077890;28;20177;-61
2021/09/29 10:05:18;;;;;;;2.03;1.00;;;;;;;19.21;52.30;97047.72;5077909;28;20255;-60
2021/09/29 10:07:48;;;;;;;0.73;0.73;;;;;;;18.96;53.00;97043.31;5082959;28;20260;-60
2021/09/29 10:27:09;;;;;;;2.25;0.82;;;;;;;19.13;49.81;97018.25;5077812;28;20181;-60
2021/09/29 10:29:38;;;;;;;1.38;0.60;;;;;;;19.55;48.93;97018.56;5078980;28;20625;-59
2021/09/29 10:43:34;;;;;;;0.70;0.70;;;;;;;20.18;47.90;97019.28;5084175;28;20184;-60
2021/09/29 11:30:06;;;;;;;1.50;0.80;;;;;;;19.72;50.07;97007.50;5087286;28;20181;-60
2021/09/29 11:35:06;;;;;;;1.63;0.80;;;;;;;19.89;49.63;97003.34;5085982;28;20220;-60
2021/09/29 11:37:47;;;;;;;0.80;0.80;;;;;;;20.09;49.62;96990.94;5074103;28;20185;-60
2021/09/29 12:10:29;;;;;;;0.60;0.52;;;;;;;20.43;46.62;96966.88;5084016;28;20677;-62
2021/09/29 12:12:56;;;;;;;0.60;0.57;;;;;;;20.80;45.80;96969.59;5080794;28;20205;-61
2021/09/29 12:15:22;;;;;;;1.77;0.70;;;;;;;20.87;46.24;96966.59;5075267;28;20225;-62
2021/09/29 12:17:51;;;;;;;0.73;0.68;;;;;;;20.83;46.23;96966.38;5082293;28;20189;-61
2021/09/29 12:20:25;;;;;;;0.65;0.50;;;;;;;20.61;46.76;96966.94;5075239;28;20182;-61
2021/09/29 12:23:03;;;;;;;2.45;0.65;;;;;;;20.21;47.60;96962.84;5081566;28;20212;-61
2021/09/29 12:25:35;;;;;;;0.98;0.70;;;;;;;20.08;47.40;96952.88;5079268;28;20550;-61
2021/09/29 12:30:55;;;;;;;0.70;0.52;;;;;;;19.98;47.58;96952.97;5076081;28;20176;-61
2021/09/29 12:33:45;;;;;;;2.80;0.98;;;;;;;20.14;47.20;96951.75;5090890;28;20228;-60
2021/09/29 12:36:14;;;;;;;2.22;0.60;;;;;;;19.85;47.96;96924.38;5080350;28;20170;-61
2021/09/29 12:38:42;;;;;;;0.98;0.52;;;;;;;19.84;47.67;96944.84;5077389;28;20560;-60
2021/09/29 12:41:08;;;;;;;1.15;0.50;;;;;;;20.05;47.74;96955.31;5079847;28;20184;-60
2021/09/29 12:43:33;;;;;;;1.02;0.70;;;;;;;20.26;46.85;96949.47;5083489;28;20187;-60
2021/09/29 12:45:59;;;;;;;2.03;0.88;;;;;;;20.54;46.46;96952.38;5087195;28;20275;-61
2021/09/29 12:48:27;;;;;;;0.85;0.60;;;;;;;20.68;46.25;96950.56;5083733;28;20191;-61
2021/09/29 12:51:00;;;;;;;3.40;0.88;;;;;;;20.97;45.42;96947.78;5082800;28;20273;-61
2021/09/29 12:56:18;;;;;;;1.33;0.70;;;;;;;20.81;45.37;96952.53;5078007;28;20262;-61
2021/09/29 12:58:46;;;;;;;1.05;0.60;;;;;;;20.79;45.57;96949.34;5089349;28;20246;-61
2021/09/29 13:01:13;;;;;;;1.15;0.52;;;;;;;20.40;46.54;96951.47;5079940;28;20208;-61
2021/09/29 13:03:39;;;;;;;1.75;0.57;;;;;;;20.23;47.11;96947.38;5089205;28;20193;-61
2021/09/29 13:06:05;;;;;;;0.95;0.60;;;;;;;20.22;47.66;96953.78;5084931;28;20185;-60
2021/09/29 13:08:31;;;;;;;0.98;0.50;;;;;;;20.01;47.62;96951.59;5092032;28;20197;-62
2021/09/29 13:10:58;;;;;;;2.80;0.60;;;;;;;19.92;48.52;96964.75;5085953;28;20212;-62
2021/09/29 13:13:24;;;;;;;0.90;0.77;;;;;;;19.83;48.75;96958.47;5094445;28;20204;-61
2021/09/29 13:15:52;;;;;;;1.90;0.80;;;;;;;19.80;49.02;96943.84;5093115;28;20713;-62
2021/09/29 13:20:52;;;;;;;0.80;0.65;;;;;;;20.10;48.35;96961.38;5078610;28;20250;-62
2021/09/29 13:23:31;;;;;;;1.90;0.65;;;;;;;20.27;48.46;96972.38;5082426;28;20209;-62
2021/09/29 13:36:49;;;;;;;0.70;0.70;;;;;;;18.84;56.42;97024.25;5079331;28;20222;-62
2021/09/29 13:39:17;;;;;;;0.70;0.65;;;;;;;18.65;58.01;97044.53;5083017;28;20192;-62
2021/09/29 13:41:45;;;;;;;0.80;0.80;;;;;;;18.37;60.89;97039.81;5082624;28;20234;-63
2021/09/29 13:44:11;;;;;;;0.70;0.70;;;;;;;18.18;62.87;97048.34;5090793;28;20184;-63
2021/09/29 13:46:38;;;;;;;2.05;0.95;;;;;;;18.10;62.97;97066.69;5091614;28;20286;-61
2021/09/29 13:49:06;;;;;;;2.95;1.10;;;;;;;17.75;65.78;97064.81;5083361;28;20642;-61
2021/09/29 13:51:33;;;;;;;0.85;0.82;;;;;;;17.05;70.21;97076.88;5083073;28;20193;-61
2021/09/29 13:54:04;;;;;;;2.77;1.00;;;;;;;16.80;74.10;97079.41;5087350;28;20177;-62
2021/09/29 13:56:39;;;;;;;1.17;0.90;;;;;;;16.65;75.55;97066.94;5075528;28;20632;-61
2021/09/29 13:59:34;;;;;;;2.80;1.03;;;;;;;16.69;76.74;97070.66;5082923;28;20165;-61
2021/09/29 14:02:17;;;;;;;1.30;0.83;;;;;;;16.94;76.55;97077.91;5077104;28;20208;-60
2021/09/29 14:29:20;;;;;;;0.63;0.63;;;;;;;16.09;72.52;97110.75;5084415;28;20230;-59
2021/09/29 14:31:50;;;;;;;0.50;0.50;;;;;;;16.17;73.68;97107.59;5085122;28;20192;-60
2021/09/29 14:34:17;;;;;;;0.93;0.70;;;;;;;16.12;75.33;97111.00;5080702;28;20184;-60